createdAt,value
2023-04-18T06:04:09.628Z,9.4
2023-04-18T06:09:44.966Z,9
2023-04-18T06:15:39.777Z,8.8
2023-04-18T06:21:23.898Z,8.8
2023-04-18T06:27:24.338Z,9.3
2023-04-18T06:33:08.314Z,9.6
2023-04-18T06:39:16.722Z,9.7
2023-04-18T06:44:56.349Z,10
2023-04-18T06:50:31.862Z,10.2
2023-04-18T06:56:12.335Z,10.1
2023-04-18T07:02:17.189Z,10.1
2023-04-18T07:07:54.042Z,10
2023-04-18T07:13:31.057Z,10.2
2023-04-18T07:19:07.199Z,10.5
2023-04-18T07:24:42.698Z,10.7
2023-04-18T07:30:18.649Z,11
2023-04-18T07:35:56.809Z,11.4
2023-04-18T07:41:38.267Z,11.6
2023-04-18T07:47:13.761Z,11.8
2023-04-18T07:52:59.863Z,11.9
2023-04-18T07:58:50.005Z,12
2023-04-18T08:04:48.887Z,12.5
2023-04-18T08:10:36.943Z,12.4
2023-04-18T08:16:16.333Z,12.7
2023-04-18T08:21:54.965Z,12.9
2023-04-18T08:27:32.369Z,13.1
2023-04-18T08:33:11.120Z,13.5
2023-04-18T08:38:48.911Z,13.7
2023-04-18T08:44:25.609Z,13.9
2023-04-18T08:50:01.417Z,14.1
2023-04-18T08:55:47.927Z,13.9
2023-04-18T09:02:09.887Z,14
2023-04-18T09:07:43.489Z,13.9
2023-04-18T09:13:19.309Z,14.4
2023-04-18T09:19:07.186Z,14.6
2023-04-18T09:25:08.459Z,14.5
2023-04-18T09:31:25.631Z,15.2
2023-04-18T09:37:17.779Z,15.5
2023-04-18T09:42:54.412Z,15.8
2023-04-18T09:48:51.571Z,16.4
2023-04-18T09:54:29.358Z,16.4
2023-04-18T10:00:05.365Z,16.4
2023-04-18T10:05:41.216Z,17
2023-04-18T10:11:20.197Z,17.1
2023-04-18T10:16:58.012Z,17
2023-04-18T10:22:39.153Z,17
2023-04-18T10:28:15.551Z,17.1
2023-04-18T10:39:51.093Z,18
2023-04-18T10:45:49.855Z,17.8
2023-04-18T10:52:07.920Z,18.4
2023-04-18T10:57:44.433Z,18.6
2023-04-18T11:03:20.283Z,18.7
2023-04-18T11:08:59.922Z,18.3
2023-04-18T11:14:36.014Z,18.8
2023-04-18T11:20:12.844Z,18.8
2023-04-18T11:25:50.058Z,19.1
2023-04-18T11:31:27.610Z,20.3
2023-04-18T11:37:21.179Z,20.3
2023-04-18T11:43:12.637Z,19.4
2023-04-18T11:49:09.414Z,18.5
2023-04-18T11:55:04.390Z,19.4
2023-04-18T12:00:45.648Z,18.8
2023-04-18T12:07:10.181Z,19.5
2023-04-18T12:13:16.008Z,20.4
2023-04-18T12:19:17.729Z,20.5
2023-04-18T12:24:53.386Z,19.9
2023-04-18T12:30:30.060Z,21.7
2023-04-18T12:36:26.109Z,21.5
2023-04-18T12:42:02.129Z,22.6
2023-04-18T12:47:39.607Z,23.8
2023-04-18T12:53:17.873Z,22.8
2023-04-18T12:59:11.658Z,21.6
2023-04-18T13:04:49.817Z,21.4
2023-04-18T13:10:26.323Z,22.2
2023-04-18T13:16:04.576Z,23.4
2023-04-18T13:21:57.286Z,24.5
2023-04-18T13:27:37.682Z,24.6
2023-04-18T13:33:21.248Z,24.8
2023-04-18T13:38:58.184Z,24.6
2023-04-18T13:44:33.819Z,27.4
2023-04-18T13:50:11.897Z,27.8
2023-04-18T13:55:48.406Z,24.6
2023-04-18T14:01:23.950Z,23.5
2023-04-18T14:06:59.990Z,23.3
2023-04-18T14:12:36.803Z,23
2023-04-18T14:18:54.113Z,23.2
2023-04-18T14:24:40.316Z,23
2023-04-18T14:30:23.021Z,22.5
2023-04-18T14:36:03.851Z,22.2
2023-04-18T14:41:40.668Z,22.1
2023-04-18T14:48:13.988Z,21.7
2023-04-18T14:54:05.827Z,21
2023-04-18T14:59:41.461Z,21.1
2023-04-18T15:05:16.746Z,21.1
2023-04-18T15:10:52.351Z,21.9
2023-04-18T15:16:46.784Z,21.7
2023-04-18T15:22:32.492Z,21.6
2023-04-18T15:28:11.994Z,22.4
2023-04-18T15:33:51.161Z,21.3
2023-04-18T15:39:46.342Z,21.1
2023-04-18T15:45:29.991Z,21
2023-04-18T15:51:24.795Z,20.7
2023-04-18T15:57:23.965Z,20.5
2023-04-18T16:03:08.544Z,20.3
2023-04-18T16:09:40.440Z,19.8
2023-04-18T16:15:46.342Z,20.1
2023-04-18T16:21:26.387Z,19.9
2023-04-18T16:27:05.677Z,19.4
2023-04-18T16:32:43.805Z,18.9
2023-04-18T16:38:22.921Z,18.9
2023-04-18T16:44:36.111Z,18.9
2023-04-18T16:50:12.457Z,18.9
2023-04-18T16:56:07.074Z,18.9
2023-04-18T17:01:51.882Z,18.6
2023-04-18T17:07:28.145Z,18.4
2023-04-18T17:13:16.768Z,18.3
2023-04-18T17:18:54.321Z,18.4
2023-04-18T17:24:29.610Z,18.2
2023-04-18T17:30:07.832Z,18.2
2023-04-18T17:36:06.078Z,18.1
2023-04-18T17:41:45.373Z,18.1
2023-04-18T17:47:24.358Z,17.9
2023-04-18T17:53:04.771Z,17.8
2023-04-18T17:58:43.879Z,17.6
2023-04-18T18:04:24.978Z,17.4
2023-04-18T18:10:05.527Z,17.2
2023-04-18T18:15:41.414Z,16.9
2023-04-18T18:21:20.356Z,16.6
2023-04-18T18:26:55.994Z,16.4
2023-04-18T18:32:42.956Z,16.3
2023-04-18T18:38:25.703Z,16.1
2023-04-18T18:44:06.268Z,15.9
2023-04-18T18:49:42.654Z,15.7
2023-04-18T18:55:33.254Z,15.7
2023-04-18T19:01:30.613Z,15.5
2023-04-18T19:07:04.763Z,15.4
2023-04-18T19:12:42.890Z,15.1
2023-04-18T19:18:22.070Z,14.9
2023-04-18T19:24:00.551Z,14.9
2023-04-18T19:29:36.074Z,14.9
2023-04-18T19:35:11.916Z,14.9
2023-04-18T19:40:49.515Z,14.8
2023-04-18T19:46:39.315Z,14.7
2023-04-18T19:52:23.140Z,14.6
2023-04-18T19:58:04.334Z,14.5
2023-04-18T20:04:01.473Z,14.3
2023-04-18T20:09:37.529Z,14.3
2023-04-18T20:15:24.888Z,14.4
2023-04-18T20:21:10.222Z,14.2
2023-04-18T20:26:45.968Z,14
2023-04-18T20:32:22.305Z,13.7
2023-04-18T20:37:58.268Z,13.6
2023-04-18T20:43:34.320Z,13.4
2023-04-18T20:49:10.678Z,13.4
2023-04-18T20:56:20.362Z,13.6
2023-04-18T21:02:27.709Z,12.9
2023-04-18T21:08:02.501Z,12.6
2023-04-18T21:13:37.698Z,12.5
